sensor_id;sensor_type;location;lat;lon;timestamp;pressure;altitude;pressure_sealevel;temperature;humidity
31771;BME280;18343;50.152;8.182;2023-05-25T00:02:38;98132.59;;;9.08;78.24
31771;BME280;18343;50.152;8.182;2023-05-25T00:05:24;98129.06;;;8.99;78.03
31771;BME280;18343;50.152;8.182;2023-05-25T00:08:09;98135.09;;;8.93;78.42
31771;BME280;18343;50.152;8.182;2023-05-25T00:10:53;98140.94;;;8.89;78.82
31771;BME280;18343;50.152;8.182;2023-05-25T00:13:38;98132.75;;;8.90;79.31
31771;BME280;18343;50.152;8.182;2023-05-25T00:16:22;98128.22;;;8.91;79.71
31771;BME280;18343;50.152;8.182;2023-05-25T00:19:07;98123.84;;;8.90;80.40
31771;BME280;18343;50.152;8.182;2023-05-25T00:21:53;98128.22;;;8.91;80.03
31771;BME280;18343;50.152;8.182;2023-05-25T00:24:38;98129.38;;;8.88;80.22
31771;BME280;18343;50.152;8.182;2023-05-25T00:27:23;98130.22;;;8.89;80.62
31771;BME280;18343;50.152;8.182;2023-05-25T00:30:09;98126.03;;;8.86;80.64
31771;BME280;18343;50.152;8.182;2023-05-25T00:32:53;98126.88;;;8.87;80.93
31771;BME280;18343;50.152;8.182;2023-05-25T00:35:38;98122.34;;;8.87;81.00
31771;BME280;18343;50.152;8.182;2023-05-25T00:38:24;98121.50;;;8.87;81.14
31771;BME280;18343;50.152;8.182;2023-05-25T00:41:09;98120.97;;;8.83;80.96
31771;BME280;18343;50.152;8.182;2023-05-25T00:43:53;98127.00;;;8.77;80.61
31771;BME280;18343;50.152;8.182;2023-05-25T00:46:38;98125.16;;;8.69;80.89
31771;BME280;18343;50.152;8.182;2023-05-25T00:49:22;98119.28;;;8.66;81.40
31771;BME280;18343;50.152;8.182;2023-05-25T00:52:27;98122.63;;;8.60;81.50
31771;BME280;18343;50.152;8.182;2023-05-25T00:55:14;98123.41;;;8.52;81.45
31771;BME280;18343;50.152;8.182;2023-05-25T00:58:03;98116.69;;;8.48;80.91
31771;BME280;18343;50.152;8.182;2023-05-25T01:00:50;98118.53;;;8.39;81.54
31771;BME280;18343;50.152;8.182;2023-05-25T01:03:36;98108.81;;;8.38;82.40
31771;BME280;18343;50.152;8.182;2023-05-25T01:06:22;98110.50;;;8.39;82.83
31771;BME280;18343;50.152;8.182;2023-05-25T01:09:08;98108.34;;;8.43;83.22
31771;BME280;18343;50.152;8.182;2023-05-25T01:11:56;98100.81;;;8.46;83.62
31771;BME280;18343;50.152;8.182;2023-05-25T01:14:41;98092.06;;;8.36;83.17
31771;BME280;18343;50.152;8.182;2023-05-25T01:17:26;98107.91;;;8.30;83.15
31771;BME280;18343;50.152;8.182;2023-05-25T01:20:11;98112.06;;;8.24;82.73
31771;BME280;18343;50.152;8.182;2023-05-25T01:23:03;98114.41;;;8.19;83.10
31771;BME280;18343;50.152;8.182;2023-05-25T01:26:00;98109.91;;;8.20;83.95
31771;BME280;18343;50.152;8.182;2023-05-25T01:28:51;98106.19;;;8.21;84.19
31771;BME280;18343;50.152;8.182;2023-05-25T01:31:35;98103.69;;;8.19;84.72
31771;BME280;18343;50.152;8.182;2023-05-25T01:34:22;98109.06;;;8.19;84.76
31771;BME280;18343;50.152;8.182;2023-05-25T01:37:11;98104.03;;;8.16;84.22
31771;BME280;18343;50.152;8.182;2023-05-25T01:39:57;98109.00;;;8.11;84.70
31771;BME280;18343;50.152;8.182;2023-05-25T01:42:41;98111.00;;;8.09;85.00
31771;BME280;18343;50.152;8.182;2023-05-25T01:45:26;98121.88;;;8.07;85.03
31771;BME280;18343;50.152;8.182;2023-05-25T01:48:20;98124.41;;;8.09;84.80
31771;BME280;18343;50.152;8.182;2023-05-25T01:51:18;98120.03;;;8.08;84.77
31771;BME280;18343;50.152;8.182;2023-05-25T01:54:10;98114.31;;;8.03;85.26
31771;BME280;18343;50.152;8.182;2023-05-25T01:56:58;98110.97;;;8.01;85.77
31771;BME280;18343;50.152;8.182;2023-05-25T01:59:46;98116.31;;;8.01;86.19
31771;BME280;18343;50.152;8.182;2023-05-25T02:02:31;98109.66;;;8.05;86.77
31771;BME280;18343;50.152;8.182;2023-05-25T02:05:19;98116.22;;;8.10;87.22
31771;BME280;18343;50.152;8.182;2023-05-25T02:08:04;98120.41;;;8.13;87.30
31771;BME280;18343;50.152;8.182;2023-05-25T02:10:49;98116.06;;;8.12;87.02
31771;BME280;18343;50.152;8.182;2023-05-25T02:13:35;98115.56;;;8.17;87.82
31771;BME280;18343;50.152;8.182;2023-05-25T02:16:20;98111.75;;;8.19;87.95
31771;BME280;18343;50.152;8.182;2023-05-25T02:19:04;98112.38;;;8.21;87.90
31771;BME280;18343;50.152;8.182;2023-05-25T02:21:49;98115.06;;;8.21;87.71
31771;BME280;18343;50.152;8.182;2023-05-25T02:24:33;98119.09;;;8.17;87.40
31771;BME280;18343;50.152;8.182;2023-05-25T02:27:17;98110.38;;;8.15;87.78
31771;BME280;18343;50.152;8.182;2023-05-25T02:30:06;98111.53;;;8.12;87.45
31771;BME280;18343;50.152;8.182;2023-05-25T02:32:50;98116.84;;;8.04;87.88
31771;BME280;18343;50.152;8.182;2023-05-25T02:35:35;98108.28;;;7.93;87.50
31771;BME280;18343;50.152;8.182;2023-05-25T02:38:19;98108.22;;;7.85;87.47
31771;BME280;18343;50.152;8.182;2023-05-25T02:41:04;98106.63;;;7.74;87.48
31771;BME280;18343;50.152;8.182;2023-05-25T02:43:49;98109.28;;;7.66;87.81
31771;BME280;18343;50.152;8.182;2023-05-25T02:46:35;98110.44;;;7.63;88.43
31771;BME280;18343;50.152;8.182;2023-05-25T02:49:20;98111.13;;;7.65;88.56
31771;BME280;18343;50.152;8.182;2023-05-25T02:52:04;98108.06;;;7.60;88.68
31771;BME280;18343;50.152;8.182;2023-05-25T02:54:49;98105.56;;;7.59;88.71
31771;BME280;18343;50.152;8.182;2023-05-25T02:57:35;98098.53;;;7.58;88.88
31771;BME280;18343;50.152;8.182;2023-05-25T03:00:19;98099.53;;;7.57;89.29
31771;BME280;18343;50.152;8.182;2023-05-25T03:03:05;98093.31;;;7.56;88.93
31771;BME280;18343;50.152;8.182;2023-05-25T03:05:51;98096.31;;;7.53;89.16
31771;BME280;18343;50.152;8.182;2023-05-25T03:08:35;98102.66;;;7.52;89.56
31771;BME280;18343;50.152;8.182;2023-05-25T03:11:20;98095.09;;;7.47;89.62
31771;BME280;18343;50.152;8.182;2023-05-25T03:14:04;98095.09;;;7.47;89.47
31771;BME280;18343;50.152;8.182;2023-05-25T03:16:51;98105.13;;;7.45;89.33
31771;BME280;18343;50.152;8.182;2023-05-25T03:19:37;98114.13;;;7.44;89.75
31771;BME280;18343;50.152;8.182;2023-05-25T03:22:21;98114.44;;;7.41;89.40
31771;BME280;18343;50.152;8.182;2023-05-25T03:25:07;98115.78;;;7.37;89.43
31771;BME280;18343;50.152;8.182;2023-05-25T03:27:52;98120.59;;;7.34;89.89
31771;BME280;18343;50.152;8.182;2023-05-25T03:30:37;98115.94;;;7.36;90.63
31771;BME280;18343;50.152;8.182;2023-05-25T03:33:21;98118.78;;;7.34;90.42
31771;BME280;18343;50.152;8.182;2023-05-25T03:36:09;98119.13;;;7.39;90.46
31771;BME280;18343;50.152;8.182;2023-05-25T03:38:53;98128.31;;;7.37;90.73
31771;BME280;18343;50.152;8.182;2023-05-25T03:41:38;98122.13;;;7.36;90.92
31771;BME280;18343;50.152;8.182;2023-05-25T03:44:22;98127.63;;;7.35;90.80
31771;BME280;18343;50.152;8.182;2023-05-25T03:47:07;98126.78;;;7.34;91.16
31771;BME280;18343;50.152;8.182;2023-05-25T03:49:51;98133.66;;;7.37;91.49
31771;BME280;18343;50.152;8.182;2023-05-25T03:52:37;98132.84;;;7.36;91.70
31771;BME280;18343;50.152;8.182;2023-05-25T03:55:22;98135.34;;;7.38;91.37
31771;BME280;18343;50.152;8.182;2023-05-25T03:58:06;98128.47;;;7.35;91.53
31771;BME280;18343;50.152;8.182;2023-05-25T04:00:51;98137.50;;;7.34;91.38
31771;BME280;18343;50.152;8.182;2023-05-25T04:03:35;98130.47;;;7.33;91.69
31771;BME280;18343;50.152;8.182;2023-05-25T04:06:20;98148.19;;;7.34;91.69
31771;BME280;18343;50.152;8.182;2023-05-25T04:09:06;98150.19;;;7.32;91.51
31771;BME280;18343;50.152;8.182;2023-05-25T04:11:54;98151.03;;;7.33;91.66
31771;BME280;18343;50.152;8.182;2023-05-25T04:14:38;98148.50;;;7.31;91.91
31771;BME280;18343;50.152;8.182;2023-05-25T04:17:23;98159.06;;;7.33;92.34
31771;BME280;18343;50.152;8.182;2023-05-25T04:20:08;98156.38;;;7.33;92.37
31771;BME280;18343;50.152;8.182;2023-05-25T04:22:53;98161.41;;;7.36;92.69
31771;BME280;18343;50.152;8.182;2023-05-25T04:25:39;98166.44;;;7.39;92.75
31771;BME280;18343;50.152;8.182;2023-05-25T04:28:24;98167.13;;;7.41;92.86
31771;BME280;18343;50.152;8.182;2023-05-25T04:31:09;98169.66;;;7.42;92.92
31771;BME280;18343;50.152;8.182;2023-05-25T04:33:53;98173.31;;;7.41;92.22
31771;BME280;18343;50.152;8.182;2023-05-25T04:36:38;98182.13;;;7.34;92.40
31771;BME280;18343;50.152;8.182;2023-05-25T04:39:22;98183.44;;;7.30;92.72
31771;BME280;18343;50.152;8.182;2023-05-25T04:42:08;98185.81;;;7.33;93.33
31771;BME280;18343;50.152;8.182;2023-05-25T04:44:53;98189.84;;;7.37;93.78
31771;BME280;18343;50.152;8.182;2023-05-25T04:47:38;98203.59;;;7.42;94.01
31771;BME280;18343;50.152;8.182;2023-05-25T04:50:22;98198.63;;;7.47;94.30
31771;BME280;18343;50.152;8.182;2023-05-25T04:53:07;98200.84;;;7.52;94.40
31771;BME280;18343;50.152;8.182;2023-05-25T04:55:52;98198.38;;;7.58;94.99
31771;BME280;18343;50.152;8.182;2023-05-25T04:58:38;98208.47;;;7.64;95.10
31771;BME280;18343;50.152;8.182;2023-05-25T05:01:22;98203.63;;;7.68;95.22
31771;BME280;18343;50.152;8.182;2023-05-25T05:04:07;98211.88;;;7.74;95.35
31771;BME280;18343;50.152;8.182;2023-05-25T05:06:52;98213.63;;;7.84;95.97
31771;BME280;18343;50.152;8.182;2023-05-25T05:09:37;98211.88;;;7.92;96.14
31771;BME280;18343;50.152;8.182;2023-05-25T05:12:21;98221.47;;;8.03;96.12
31771;BME280;18343;50.152;8.182;2023-05-25T05:15:08;98226.03;;;8.10;96.48
31771;BME280;18343;50.152;8.182;2023-05-25T05:17:53;98217.56;;;8.23;97.45
31771;BME280;18343;50.152;8.182;2023-05-25T05:20:38;98223.81;;;8.32;97.58
31771;BME280;18343;50.152;8.182;2023-05-25T05:23:22;98224.25;;;8.45;97.78
31771;BME280;18343;50.152;8.182;2023-05-25T05:26:07;98226.97;;;8.53;98.06
31771;BME280;18343;50.152;8.182;2023-05-25T05:28:51;98226.16;;;8.61;98.05
31771;BME280;18343;50.152;8.182;2023-05-25T05:31:37;98229.72;;;8.69;98.29
31771;BME280;18343;50.152;8.182;2023-05-25T05:34:22;98237.09;;;8.75;98.46
31771;BME280;18343;50.152;8.182;2023-05-25T05:37:06;98231.25;;;8.80;98.68
31771;BME280;18343;50.152;8.182;2023-05-25T05:39:51;98232.16;;;8.89;99.09
31771;BME280;18343;50.152;8.182;2023-05-25T05:42:35;98236.69;;;8.96;99.42
31771;BME280;18343;50.152;8.182;2023-05-25T05:45:19;98240.59;;;9.10;100.00
31771;BME280;18343;50.152;8.182;2023-05-25T05:48:06;98244.66;;;9.22;100.00
31771;BME280;18343;50.152;8.182;2023-05-25T05:50:52;98246.50;;;9.38;100.00
31771;BME280;18343;50.152;8.182;2023-05-25T05:53:36;98253.78;;;9.54;100.00
31771;BME280;18343;50.152;8.182;2023-05-25T05:56:21;98255.63;;;9.69;100.00
31771;BME280;18343;50.152;8.182;2023-05-25T05:59:06;98249.59;;;9.83;100.00
31771;BME280;18343;50.152;8.182;2023-05-25T06:01:54;98249.91;;;10.05;100.00
31771;BME280;18343;50.152;8.182;2023-05-25T06:04:41;98250.41;;;10.25;100.00
31771;BME280;18343;50.152;8.182;2023-05-25T06:07:26;98247.81;;;10.47;100.00
31771;BME280;18343;50.152;8.182;2023-05-25T06:10:10;98248.06;;;10.77;100.00
31771;BME280;18343;50.152;8.182;2023-05-25T06:12:55;98251.31;;;11.03;100.00
31771;BME280;18343;50.152;8.182;2023-05-25T06:15:39;98258.09;;;11.22;100.00
31771;BME280;18343;50.152;8.182;2023-05-25T06:18:24;98255.16;;;11.40;100.00
31771;BME280;18343;50.152;8.182;2023-05-25T06:21:10;98260.13;;;11.51;100.00
31771;BME280;18343;50.152;8.182;2023-05-25T06:23:58;98255.53;;;11.60;100.00
31771;BME280;18343;50.152;8.182;2023-05-25T06:26:43;98271.66;;;11.68;100.00
31771;BME280;18343;50.152;8.182;2023-05-25T06:29:31;98262.00;;;11.73;100.00
31771;BME280;18343;50.152;8.182;2023-05-25T06:32:16;98269.56;;;11.78;100.00
31771;BME280;18343;50.152;8.182;2023-05-25T06:35:01;98274.66;;;11.96;100.00
31771;BME280;18343;50.152;8.182;2023-05-25T06:37:48;98270.63;;;12.14;100.00
31771;BME280;18343;50.152;8.182;2023-05-25T06:40:33;98269.25;;;12.33;100.00
31771;BME280;18343;50.152;8.182;2023-05-25T06:43:17;98274.97;;;12.53;100.00
31771;BME280;18343;50.152;8.182;2023-05-25T06:46:04;98270.59;;;12.67;100.00
31771;BME280;18343;50.152;8.182;2023-05-25T06:48:49;98269.59;;;12.82;100.00
31771;BME280;18343;50.152;8.182;2023-05-25T06:51:34;98271.25;;;12.98;100.00
31771;BME280;18343;50.152;8.182;2023-05-25T06:54:20;98265.56;;;13.08;100.00
31771;BME280;18343;50.152;8.182;2023-05-25T06:57:04;98260.63;;;13.11;100.00
31771;BME280;18343;50.152;8.182;2023-05-25T06:59:51;98262.94;;;13.14;100.00
31771;BME280;18343;50.152;8.182;2023-05-25T07:02:38;98259.88;;;13.17;100.00
31771;BME280;18343;50.152;8.182;2023-05-25T07:05:23;98253.84;;;13.15;100.00
31771;BME280;18343;50.152;8.182;2023-05-25T07:08:08;98255.41;;;13.25;100.00
31771;BME280;18343;50.152;8.182;2023-05-25T07:10:54;98259.03;;;13.32;100.00
31771;BME280;18343;50.152;8.182;2023-05-25T07:13:39;98261.19;;;13.36;100.00
31771;BME280;18343;50.152;8.182;2023-05-25T07:16:23;98262.91;;;13.44;100.00
31771;BME280;18343;50.152;8.182;2023-05-25T07:19:08;98254.31;;;13.55;100.00
31771;BME280;18343;50.152;8.182;2023-05-25T07:21:52;98246.66;;;13.59;100.00
31771;BME280;18343;50.152;8.182;2023-05-25T07:24:37;98254.25;;;13.70;100.00
31771;BME280;18343;50.152;8.182;2023-05-25T07:27:23;98258.94;;;13.82;100.00
31771;BME280;18343;50.152;8.182;2023-05-25T07:30:09;98255.22;;;13.83;100.00
31771;BME280;18343;50.152;8.182;2023-05-25T07:32:54;98261.84;;;14.02;100.00
31771;BME280;18343;50.152;8.182;2023-05-25T07:35:38;98263.28;;;14.26;100.00
31771;BME280;18343;50.152;8.182;2023-05-25T07:38:25;98245.19;;;14.27;100.00
31771;BME280;18343;50.152;8.182;2023-05-25T07:41:09;98252.91;;;14.30;100.00
31771;BME280;18343;50.152;8.182;2023-05-25T07:43:55;98256.78;;;14.42;100.00
31771;BME280;18343;50.152;8.182;2023-05-25T07:46:41;98259.19;;;14.58;100.00
31771;BME280;18343;50.152;8.182;2023-05-25T07:49:26;98260.31;;;14.70;100.00
31771;BME280;18343;50.152;8.182;2023-05-25T07:52:11;98255.81;;;14.84;100.00
31771;BME280;18343;50.152;8.182;2023-05-25T07:54:55;98250.03;;;14.94;100.00
31771;BME280;18343;50.152;8.182;2023-05-25T07:57:40;98264.06;;;15.10;100.00
31771;BME280;18343;50.152;8.182;2023-05-25T08:00:26;98256.44;;;15.27;100.00
31771;BME280;18343;50.152;8.182;2023-05-25T08:03:10;98256.03;;;15.37;100.00
31771;BME280;18343;50.152;8.182;2023-05-25T08:05:55;98247.34;;;15.48;100.00
31771;BME280;18343;50.152;8.182;2023-05-25T08:08:39;98250.72;;;15.63;100.00
31771;BME280;18343;50.152;8.182;2023-05-25T08:11:24;98260.75;;;15.69;100.00
31771;BME280;18343;50.152;8.182;2023-05-25T08:14:09;98248.69;;;15.78;100.00
31771;BME280;18343;50.152;8.182;2023-05-25T08:16:55;98249.31;;;15.74;100.00
31771;BME280;18343;50.152;8.182;2023-05-25T08:19:40;98256.22;;;15.89;100.00
31771;BME280;18343;50.152;8.182;2023-05-25T08:22:24;98251.81;;;15.88;100.00
31771;BME280;18343;50.152;8.182;2023-05-25T08:25:09;98244.72;;;15.87;100.00
31771;BME280;18343;50.152;8.182;2023-05-25T08:27:54;98247.03;;;15.90;98.82
31771;BME280;18343;50.152;8.182;2023-05-25T08:30:38;98244.34;;;16.10;100.00
31771;BME280;18343;50.152;8.182;2023-05-25T08:33:24;98245.81;;;16.26;98.30
31771;BME280;18343;50.152;8.182;2023-05-25T08:36:09;98242.47;;;16.31;98.29
31771;BME280;18343;50.152;8.182;2023-05-25T08:38:53;98244.75;;;16.47;98.82
31771;BME280;18343;50.152;8.182;2023-05-25T08:41:43;98241.59;;;16.70;99.56
31771;BME280;18343;50.152;8.182;2023-05-25T08:44:31;98248.03;;;16.95;98.74
31771;BME280;18343;50.152;8.182;2023-05-25T08:47:18;98245.28;;;17.02;97.24
31771;BME280;18343;50.152;8.182;2023-05-25T08:50:08;98246.09;;;17.15;96.38
31771;BME280;18343;50.152;8.182;2023-05-25T08:52:54;98252.94;;;17.24;95.00
31771;BME280;18343;50.152;8.182;2023-05-25T08:55:42;98248.09;;;17.33;96.04
31771;BME280;18343;50.152;8.182;2023-05-25T08:58:33;98255.59;;;17.44;95.67
31771;BME280;18343;50.152;8.182;2023-05-25T09:01:22;98243.84;;;17.50;94.23
31771;BME280;18343;50.152;8.182;2023-05-25T09:04:10;98253.19;;;17.61;94.03
31771;BME280;18343;50.152;8.182;2023-05-25T09:06:57;98245.00;;;17.74;93.29
31771;BME280;18343;50.152;8.182;2023-05-25T09:09:42;98247.84;;;17.86;93.52
31771;BME280;18343;50.152;8.182;2023-05-25T09:12:30;98250.22;;;17.76;91.26
31771;BME280;18343;50.152;8.182;2023-05-25T09:15:17;98260.69;;;17.72;90.61
31771;BME280;18343;50.152;8.182;2023-05-25T09:18:02;98255.88;;;17.74;90.94
31771;BME280;18343;50.152;8.182;2023-05-25T09:20:48;98261.81;;;17.96;90.75
31771;BME280;18343;50.152;8.182;2023-05-25T09:23:34;98263.22;;;18.05;89.46
31771;BME280;18343;50.152;8.182;2023-05-25T09:26:20;98260.78;;;18.22;89.36
31771;BME280;18343;50.152;8.182;2023-05-25T09:29:05;98266.28;;;18.40;89.01
31771;BME280;18343;50.152;8.182;2023-05-25T09:31:50;98267.16;;;18.34;85.77
31771;BME280;18343;50.152;8.182;2023-05-25T09:34:35;98272.91;;;18.26;83.33
31771;BME280;18343;50.152;8.182;2023-05-25T09:37:20;98263.91;;;18.25;83.32
31771;BME280;18343;50.152;8.182;2023-05-25T09:40:08;98268.81;;;18.35;83.75
31771;BME280;18343;50.152;8.182;2023-05-25T09:42:52;98267.31;;;18.39;80.82
31771;BME280;18343;50.152;8.182;2023-05-25T09:45:37;98267.50;;;18.44;82.35
31771;BME280;18343;50.152;8.182;2023-05-25T09:48:22;98267.78;;;18.36;80.06
31771;BME280;18343;50.152;8.182;2023-05-25T09:51:08;98270.50;;;18.36;77.66
31771;BME280;18343;50.152;8.182;2023-05-25T09:53:53;98264.13;;;18.49;77.89
31771;BME280;18343;50.152;8.182;2023-05-25T09:56:39;98258.56;;;18.62;77.85
31771;BME280;18343;50.152;8.182;2023-05-25T09:59:24;98265.13;;;18.79;77.60
31771;BME280;18343;50.152;8.182;2023-05-25T10:02:10;98262.91;;;18.88;76.66
31771;BME280;18343;50.152;8.182;2023-05-25T10:04:55;98262.56;;;19.03;74.13
31771;BME280;18343;50.152;8.182;2023-05-25T10:07:39;98255.16;;;19.10;74.16
31771;BME280;18343;50.152;8.182;2023-05-25T10:10:26;98273.78;;;19.13;73.34
31771;BME280;18343;50.152;8.182;2023-05-25T10:13:18;98277.91;;;18.97;70.17
31771;BME280;18343;50.152;8.182;2023-05-25T10:16:04;98274.06;;;19.05;69.44
31771;BME280;18343;50.152;8.182;2023-05-25T10:19:05;98263.84;;;19.18;71.75
31771;BME280;18343;50.152;8.182;2023-05-25T10:22:00;98274.91;;;19.42;72.01
31771;BME280;18343;50.152;8.182;2023-05-25T10:24:53;98269.00;;;19.63;70.98
31771;BME280;18343;50.152;8.182;2023-05-25T10:27:40;98260.69;;;19.70;69.61
31771;BME280;18343;50.152;8.182;2023-05-25T10:30:27;98257.66;;;19.78;69.95
31771;BME280;18343;50.152;8.182;2023-05-25T10:33:11;98256.88;;;19.89;67.83
31771;BME280;18343;50.152;8.182;2023-05-25T10:35:57;98265.31;;;19.99;67.16
31771;BME280;18343;50.152;8.182;2023-05-25T10:38:44;98271.97;;;20.03;66.39
31771;BME280;18343;50.152;8.182;2023-05-25T10:41:29;98257.41;;;20.09;65.88
31771;BME280;18343;50.152;8.182;2023-05-25T10:44:14;98257.78;;;20.13;64.16
31771;BME280;18343;50.152;8.182;2023-05-25T10:47:01;98255.31;;;20.23;64.70
31771;BME280;18343;50.152;8.182;2023-05-25T10:49:55;98254.34;;;20.29;63.79
31771;BME280;18343;50.152;8.182;2023-05-25T10:52:39;98253.41;;;20.23;61.61
31771;BME280;18343;50.152;8.182;2023-05-25T10:55:24;98256.63;;;20.20;60.54
31771;BME280;18343;50.152;8.182;2023-05-25T10:58:11;98260.41;;;20.19;59.71
31771;BME280;18343;50.152;8.182;2023-05-25T11:00:58;98251.25;;;20.25;60.53
31771;BME280;18343;50.152;8.182;2023-05-25T11:04:12;98248.38;;;20.50;60.64
31771;BME280;18343;50.152;8.182;2023-05-25T11:07:06;98255.03;;;20.66;59.69
31771;BME280;18343;50.152;8.182;2023-05-25T11:09:57;98251.94;;;20.51;58.03
31771;BME280;18343;50.152;8.182;2023-05-25T11:12:42;98250.88;;;20.75;58.31
31771;BME280;18343;50.152;8.182;2023-05-25T11:15:29;98247.75;;;20.83;57.21
31771;BME280;18343;50.152;8.182;2023-05-25T11:18:14;98252.75;;;20.86;55.49
31771;BME280;18343;50.152;8.182;2023-05-25T11:21:13;98249.91;;;20.93;55.35
31771;BME280;18343;50.152;8.182;2023-05-25T11:24:01;98246.09;;;21.06;55.31
31771;BME280;18343;50.152;8.182;2023-05-25T11:26:55;98243.47;;;21.22;55.37
31771;BME280;18343;50.152;8.182;2023-05-25T11:29:40;98243.59;;;21.27;53.75
31771;BME280;18343;50.152;8.182;2023-05-25T11:32:25;98236.16;;;21.40;54.39
31771;BME280;18343;50.152;8.182;2023-05-25T11:35:10;98235.56;;;21.38;53.47
31771;BME280;18343;50.152;8.182;2023-05-25T11:37:57;98234.53;;;21.27;53.59
31771;BME280;18343;50.152;8.182;2023-05-25T11:40:41;98232.09;;;21.42;52.81
31771;BME280;18343;50.152;8.182;2023-05-25T11:43:26;98234.81;;;21.54;52.93
31771;BME280;18343;50.152;8.182;2023-05-25T11:46:11;98222.44;;;21.51;51.40
31771;BME280;18343;50.152;8.182;2023-05-25T11:48:56;98228.44;;;21.37;51.05
31771;BME280;18343;50.152;8.182;2023-05-25T11:51:40;98219.75;;;21.40;50.21
31771;BME280;18343;50.152;8.182;2023-05-25T11:54:27;98216.03;;;21.46;49.83
31771;BME280;18343;50.152;8.182;2023-05-25T11:57:14;98207.09;;;21.50;49.56
31771;BME280;18343;50.152;8.182;2023-05-25T11:59:59;98204.38;;;21.50;49.02
31771;BME280;18343;50.152;8.182;2023-05-25T12:02:44;98211.97;;;21.60;49.77
31771;BME280;18343;50.152;8.182;2023-05-25T12:05:37;98214.00;;;21.81;49.10
31771;BME280;18343;50.152;8.182;2023-05-25T12:08:31;98208.38;;;21.88;48.57
31771;BME280;18343;50.152;8.182;2023-05-25T12:11:25;98212.56;;;22.07;47.83
31771;BME280;18343;50.152;8.182;2023-05-25T12:14:12;98211.59;;;22.13;47.61
31771;BME280;18343;50.152;8.182;2023-05-25T12:16:57;98208.25;;;22.28;48.28
31771;BME280;18343;50.152;8.182;2023-05-25T12:19:45;98212.63;;;22.46;48.43
31771;BME280;18343;50.152;8.182;2023-05-25T12:22:29;98206.72;;;22.71;47.73
31771;BME280;18343;50.152;8.182;2023-05-25T12:25:18;98194.53;;;22.78;47.29
31771;BME280;18343;50.152;8.182;2023-05-25T12:28:22;98195.75;;;22.71;46.44
31771;BME280;18343;50.152;8.182;2023-05-25T12:31:20;98199.69;;;22.58;45.76
31771;BME280;18343;50.152;8.182;2023-05-25T12:34:08;98196.94;;;22.58;46.16
31771;BME280;18343;50.152;8.182;2023-05-25T12:36:55;98193.84;;;22.71;45.43
31771;BME280;18343;50.152;8.182;2023-05-25T12:39:39;98189.03;;;22.78;46.28
31771;BME280;18343;50.152;8.182;2023-05-25T12:42:25;98190.69;;;22.96;45.54
31771;BME280;18343;50.152;8.182;2023-05-25T12:45:11;98193.16;;;23.19;47.02
31771;BME280;18343;50.152;8.182;2023-05-25T12:47:56;98200.63;;;23.46;45.45
31771;BME280;18343;50.152;8.182;2023-05-25T12:50:56;98191.34;;;23.30;45.68
31771;BME280;18343;50.152;8.182;2023-05-25T12:53:49;98187.09;;;23.39;45.71
31771;BME280;18343;50.152;8.182;2023-05-25T12:56:55;98179.81;;;23.50;45.68
31771;BME280;18343;50.152;8.182;2023-05-25T12:59:42;98190.28;;;23.31;44.46
31771;BME280;18343;50.152;8.182;2023-05-25T13:02:33;98186.13;;;23.28;43.15
31771;BME280;18343;50.152;8.182;2023-05-25T13:05:20;98187.53;;;23.31;43.90
31771;BME280;18343;50.152;8.182;2023-05-25T13:08:05;98186.69;;;23.30;42.66
31771;BME280;18343;50.152;8.182;2023-05-25T13:10:50;98186.06;;;23.45;43.35
31771;BME280;18343;50.152;8.182;2023-05-25T13:13:34;98180.25;;;23.63;43.87
31771;BME280;18343;50.152;8.182;2023-05-25T13:16:19;98181.78;;;23.81;43.27
31771;BME280;18343;50.152;8.182;2023-05-25T13:19:06;98178.78;;;23.83;43.01
31771;BME280;18343;50.152;8.182;2023-05-25T13:21:51;98170.28;;;23.84;43.32
31771;BME280;18343;50.152;8.182;2023-05-25T13:24:38;98176.97;;;23.93;42.29
31771;BME280;18343;50.152;8.182;2023-05-25T13:27:22;98181.06;;;23.91;42.46
31771;BME280;18343;50.152;8.182;2023-05-25T13:30:08;98183.25;;;23.89;42.08
31771;BME280;18343;50.152;8.182;2023-05-25T13:32:55;98171.47;;;23.93;42.08
31771;BME280;18343;50.152;8.182;2023-05-25T13:35:41;98177.56;;;23.95;41.25
31771;BME280;18343;50.152;8.182;2023-05-25T13:38:25;98169.94;;;24.03;41.22
31771;BME280;18343;50.152;8.182;2023-05-25T13:41:12;98170.00;;;24.13;41.33
31771;BME280;18343;50.152;8.182;2023-05-25T13:43:57;98167.56;;;24.16;41.21
31771;BME280;18343;50.152;8.182;2023-05-25T13:46:41;98166.25;;;24.24;41.23
31771;BME280;18343;50.152;8.182;2023-05-25T13:49:26;98171.88;;;24.34;40.75
31771;BME280;18343;50.152;8.182;2023-05-25T13:52:12;98161.53;;;24.51;41.36
31771;BME280;18343;50.152;8.182;2023-05-25T13:54:57;98163.56;;;24.71;41.41
31771;BME280;18343;50.152;8.182;2023-05-25T13:57:44;98167.53;;;24.90;41.36
31771;BME280;18343;50.152;8.182;2023-05-25T14:00:29;98163.50;;;25.03;40.66
31771;BME280;18343;50.152;8.182;2023-05-25T14:03:14;98164.03;;;25.00;39.92
31771;BME280;18343;50.152;8.182;2023-05-25T14:06:00;98164.09;;;25.10;40.75
31771;BME280;18343;50.152;8.182;2023-05-25T14:08:46;98158.88;;;25.19;39.84
31771;BME280;18343;50.152;8.182;2023-05-25T14:11:31;98158.63;;;25.20;39.92
31771;BME280;18343;50.152;8.182;2023-05-25T14:14:16;98159.50;;;25.31;39.49
31771;BME280;18343;50.152;8.182;2023-05-25T14:17:01;98161.09;;;25.22;38.83
31771;BME280;18343;50.152;8.182;2023-05-25T14:19:45;98154.78;;;25.21;39.99
31771;BME280;18343;50.152;8.182;2023-05-25T14:22:30;98155.09;;;25.30;38.93
31771;BME280;18343;50.152;8.182;2023-05-25T14:25:20;98159.75;;;25.24;38.67
31771;BME280;18343;50.152;8.182;2023-05-25T14:28:08;98151.72;;;25.13;38.82
31771;BME280;18343;50.152;8.182;2023-05-25T14:30:52;98156.91;;;25.04;38.28
31771;BME280;18343;50.152;8.182;2023-05-25T14:33:38;98154.97;;;25.05;37.85
31771;BME280;18343;50.152;8.182;2023-05-25T14:36:22;98149.75;;;25.03;38.68
31771;BME280;18343;50.152;8.182;2023-05-25T14:39:07;98149.22;;;25.06;38.33
31771;BME280;18343;50.152;8.182;2023-05-25T14:41:53;98147.88;;;25.14;37.55
31771;BME280;18343;50.152;8.182;2023-05-25T14:44:39;98139.34;;;25.20;37.48